sensor_id;sensor_type;location;lat;lon;timestamp;pressure;altitude;pressure_sealevel;temperature;humidity
39363;BME280;25088;43.238;23.110;2022-09-03T00:01:43;96504.00;;;18.59;100.00
39363;BME280;25088;43.238;23.110;2022-09-03T00:04:29;96502.06;;;18.59;100.00
39363;BME280;25088;43.238;23.110;2022-09-03T00:07:02;96499.72;;;18.67;100.00
39363;BME280;25088;43.238;23.110;2022-09-03T00:09:36;96495.53;;;18.55;100.00
39363;BME280;25088;43.238;23.110;2022-09-03T00:12:08;96502.16;;;18.54;100.00
39363;BME280;25088;43.238;23.110;2022-09-03T00:17:26;96500.44;;;18.58;100.00
39363;BME280;25088;43.238;23.110;2022-09-03T00:20:02;96504.13;;;18.54;100.00
39363;BME280;25088;43.238;23.110;2022-09-03T00:22:36;96496.34;;;18.56;100.00
39363;BME280;25088;43.238;23.110;2022-09-03T00:25:08;96494.91;;;18.58;100.00
39363;BME280;25088;43.238;23.110;2022-09-03T00:27:39;96490.50;;;18.44;100.00
39363;BME280;25088;43.238;23.110;2022-09-03T00:30:12;96484.25;;;18.52;100.00
39363;BME280;25088;43.238;23.110;2022-09-03T00:35:12;96494.13;;;18.72;100.00
39363;BME280;25088;43.238;23.110;2022-09-03T00:37:41;96491.03;;;18.73;100.00
39363;BME280;25088;43.238;23.110;2022-09-03T00:40:13;96500.56;;;18.81;100.00
39363;BME280;25088;43.238;23.110;2022-09-03T00:42:52;96497.09;;;18.75;100.00
39363;BME280;25088;43.238;23.110;2022-09-03T00:45:31;96500.13;;;18.74;100.00
39363;BME280;25088;43.238;23.110;2022-09-03T00:50:35;96513.56;;;18.80;100.00
39363;BME280;25088;43.238;23.110;2022-09-03T00:53:32;96504.47;;;18.80;100.00
39363;BME280;25088;43.238;23.110;2022-09-03T01:01:29;96503.00;;;18.69;100.00
39363;BME280;25088;43.238;23.110;2022-09-03T01:11:49;96499.41;;;18.41;100.00
39363;BME280;25088;43.238;23.110;2022-09-03T01:14:42;96498.28;;;18.28;100.00
39363;BME280;25088;43.238;23.110;2022-09-03T01:20:11;96507.09;;;18.57;100.00
39363;BME280;25088;43.238;23.110;2022-09-03T01:23:25;96510.22;;;18.70;100.00
39363;BME280;25088;43.238;23.110;2022-09-03T01:26:15;96512.41;;;18.68;100.00
39363;BME280;25088;43.238;23.110;2022-09-03T01:32:07;96505.97;;;18.58;100.00
39363;BME280;25088;43.238;23.110;2022-09-03T01:37:49;96498.06;;;18.38;100.00
39363;BME280;25088;43.238;23.110;2022-09-03T01:46:12;96515.00;;;18.50;100.00
39363;BME280;25088;43.238;23.110;2022-09-03T01:48:49;96518.25;;;18.52;100.00
39363;BME280;25088;43.238;23.110;2022-09-03T01:51:22;96519.28;;;18.56;100.00
39363;BME280;25088;43.238;23.110;2022-09-03T01:59:22;96519.69;;;18.50;100.00
39363;BME280;25088;43.238;23.110;2022-09-03T02:01:53;96519.59;;;18.55;100.00
39363;BME280;25088;43.238;23.110;2022-09-03T02:04:23;96525.41;;;18.53;100.00
39363;BME280;25088;43.238;23.110;2022-09-03T02:06:51;96521.34;;;18.51;100.00
39363;BME280;25088;43.238;23.110;2022-09-03T02:09:17;96531.38;;;18.60;100.00
39363;BME280;25088;43.238;23.110;2022-09-03T02:11:47;96533.44;;;18.69;100.00
39363;BME280;25088;43.238;23.110;2022-09-03T02:14:15;96523.94;;;18.75;100.00
39363;BME280;25088;43.238;23.110;2022-09-03T02:16:41;96528.00;;;18.77;100.00
39363;BME280;25088;43.238;23.110;2022-09-03T02:19:13;96529.53;;;18.83;100.00
39363;BME280;25088;43.238;23.110;2022-09-03T02:21:48;96529.13;;;18.76;100.00
39363;BME280;25088;43.238;23.110;2022-09-03T02:24:15;96532.13;;;18.80;100.00
39363;BME280;25088;43.238;23.110;2022-09-03T02:26:41;96531.47;;;18.83;100.00
39363;BME280;25088;43.238;23.110;2022-09-03T02:29:06;96529.84;;;18.68;100.00
39363;BME280;25088;43.238;23.110;2022-09-03T02:31:32;96525.84;;;18.74;100.00
39363;BME280;25088;43.238;23.110;2022-09-03T02:33:58;96521.56;;;18.68;100.00
39363;BME280;25088;43.238;23.110;2022-09-03T02:36:27;96516.38;;;18.34;100.00
39363;BME280;25088;43.238;23.110;2022-09-03T02:38:54;96517.00;;;18.17;100.00
39363;BME280;25088;43.238;23.110;2022-09-03T02:41:20;96522.84;;;18.16;100.00
39363;BME280;25088;43.238;23.110;2022-09-03T02:44:05;96517.59;;;18.14;100.00
39363;BME280;25088;43.238;23.110;2022-09-03T02:49:07;96515.56;;;18.06;100.00
39363;BME280;25088;43.238;23.110;2022-09-03T02:51:41;96518.00;;;18.07;100.00
39363;BME280;25088;43.238;23.110;2022-09-03T02:54:08;96526.09;;;18.18;100.00
39363;BME280;25088;43.238;23.110;2022-09-03T02:56:34;96523.34;;;18.18;100.00
39363;BME280;25088;43.238;23.110;2022-09-03T02:59:01;96535.66;;;18.25;100.00
39363;BME280;25088;43.238;23.110;2022-09-03T03:01:27;96535.75;;;18.34;100.00
39363;BME280;25088;43.238;23.110;2022-09-03T03:03:52;96540.31;;;18.25;100.00
39363;BME280;25088;43.238;23.110;2022-09-03T03:06:18;96535.34;;;18.27;100.00
39363;BME280;25088;43.238;23.110;2022-09-03T03:08:45;96540.03;;;18.26;100.00
39363;BME280;25088;43.238;23.110;2022-09-03T03:11:11;96536.03;;;18.19;100.00
39363;BME280;25088;43.238;23.110;2022-09-03T03:13:43;96532.34;;;18.23;100.00
39363;BME280;25088;43.238;23.110;2022-09-03T03:16:10;96527.34;;;18.25;100.00
39363;BME280;25088;43.238;23.110;2022-09-03T03:18:36;96534.28;;;18.23;100.00
39363;BME280;25088;43.238;23.110;2022-09-03T03:21:06;96533.34;;;18.14;100.00
39363;BME280;25088;43.238;23.110;2022-09-03T03:23:32;96526.28;;;18.07;100.00
39363;BME280;25088;43.238;23.110;2022-09-03T03:26:03;96529.88;;;18.08;100.00
39363;BME280;25088;43.238;23.110;2022-09-03T03:28:29;96536.75;;;18.11;100.00
39363;BME280;25088;43.238;23.110;2022-09-03T03:31:09;96539.41;;;18.16;100.00
39363;BME280;25088;43.238;23.110;2022-09-03T03:33:36;96538.69;;;18.24;100.00
39363;BME280;25088;43.238;23.110;2022-09-03T03:36:04;96529.78;;;18.13;100.00
39363;BME280;25088;43.238;23.110;2022-09-03T03:38:30;96535.22;;;18.18;100.00
39363;BME280;25088;43.238;23.110;2022-09-03T03:40:55;96539.94;;;18.31;100.00
39363;BME280;25088;43.238;23.110;2022-09-03T03:43:20;96541.69;;;18.41;100.00
39363;BME280;25088;43.238;23.110;2022-09-03T03:45:58;96545.78;;;18.44;100.00
39363;BME280;25088;43.238;23.110;2022-09-03T03:48:26;96543.84;;;18.30;100.00
39363;BME280;25088;43.238;23.110;2022-09-03T03:50:52;96533.38;;;18.27;100.00
39363;BME280;25088;43.238;23.110;2022-09-03T03:53:18;96542.72;;;18.45;100.00
39363;BME280;25088;43.238;23.110;2022-09-03T03:55:53;96535.75;;;18.34;100.00
39363;BME280;25088;43.238;23.110;2022-09-03T03:58:19;96540.25;;;18.44;100.00
39363;BME280;25088;43.238;23.110;2022-09-03T04:00:44;96538.75;;;18.51;100.00
39363;BME280;25088;43.238;23.110;2022-09-03T04:03:14;96513.75;;;18.43;100.00
39363;BME280;25088;43.238;23.110;2022-09-03T04:05:39;96536.09;;;18.60;100.00
39363;BME280;25088;43.238;23.110;2022-09-03T04:08:05;96527.97;;;18.64;100.00
39363;BME280;25088;43.238;23.110;2022-09-03T04:10:31;96538.53;;;18.62;100.00
39363;BME280;25088;43.238;23.110;2022-09-03T04:12:56;96532.69;;;18.49;100.00
39363;BME280;25088;43.238;23.110;2022-09-03T04:15:22;96537.91;;;18.37;100.00
39363;BME280;25088;43.238;23.110;2022-09-03T04:17:47;96531.00;;;18.07;100.00
39363;BME280;25088;43.238;23.110;2022-09-03T04:20:13;96552.41;;;18.29;100.00
39363;BME280;25088;43.238;23.110;2022-09-03T04:22:38;96550.00;;;18.41;100.00
39363;BME280;25088;43.238;23.110;2022-09-03T04:25:04;96559.31;;;18.45;100.00
39363;BME280;25088;43.238;23.110;2022-09-03T04:27:30;96554.28;;;18.33;100.00
39363;BME280;25088;43.238;23.110;2022-09-03T04:29:55;96554.94;;;18.12;100.00
39363;BME280;25088;43.238;23.110;2022-09-03T04:32:20;96565.41;;;18.28;100.00
39363;BME280;25088;43.238;23.110;2022-09-03T04:35:05;96566.03;;;18.25;100.00
39363;BME280;25088;43.238;23.110;2022-09-03T04:37:31;96564.38;;;18.24;100.00
39363;BME280;25088;43.238;23.110;2022-09-03T04:39:57;96570.22;;;18.23;100.00
39363;BME280;25088;43.238;23.110;2022-09-03T04:42:23;96562.44;;;18.25;100.00
39363;BME280;25088;43.238;23.110;2022-09-03T04:44:48;96579.44;;;18.32;100.00
39363;BME280;25088;43.238;23.110;2022-09-03T04:47:14;96581.31;;;18.04;100.00
39363;BME280;25088;43.238;23.110;2022-09-03T04:49:40;96585.13;;;18.08;100.00
39363;BME280;25088;43.238;23.110;2022-09-03T04:52:05;96602.81;;;18.07;100.00
39363;BME280;25088;43.238;23.110;2022-09-03T04:54:31;96600.81;;;17.94;100.00
39363;BME280;25088;43.238;23.110;2022-09-03T04:56:57;96597.16;;;17.98;100.00
39363;BME280;25088;43.238;23.110;2022-09-03T04:59:22;96594.41;;;17.98;100.00
39363;BME280;25088;43.238;23.110;2022-09-03T05:01:47;96604.94;;;17.96;100.00
39363;BME280;25088;43.238;23.110;2022-09-03T05:04:13;96602.09;;;18.01;100.00
39363;BME280;25088;43.238;23.110;2022-09-03T05:06:38;96607.41;;;17.98;100.00
39363;BME280;25088;43.238;23.110;2022-09-03T05:09:04;96597.56;;;17.92;100.00
39363;BME280;25088;43.238;23.110;2022-09-03T05:11:30;96601.28;;;18.01;100.00
39363;BME280;25088;43.238;23.110;2022-09-03T05:13:57;96602.75;;;18.12;100.00
39363;BME280;25088;43.238;23.110;2022-09-03T05:16:24;96601.69;;;18.08;100.00
39363;BME280;25088;43.238;23.110;2022-09-03T05:18:52;96602.75;;;18.12;100.00
39363;BME280;25088;43.238;23.110;2022-09-03T05:21:18;96607.53;;;18.06;100.00
39363;BME280;25088;43.238;23.110;2022-09-03T05:23:46;96590.41;;;18.04;100.00
39363;BME280;25088;43.238;23.110;2022-09-03T05:26:14;96602.50;;;18.08;100.00
39363;BME280;25088;43.238;23.110;2022-09-03T05:28:41;96586.66;;;18.14;100.00
39363;BME280;25088;43.238;23.110;2022-09-03T05:31:16;96600.88;;;18.07;100.00
39363;BME280;25088;43.238;23.110;2022-09-03T05:33:47;96615.59;;;18.03;100.00
39363;BME280;25088;43.238;23.110;2022-09-03T05:36:33;96612.97;;;18.12;100.00
39363;BME280;25088;43.238;23.110;2022-09-03T05:38:59;96615.50;;;18.08;100.00
39363;BME280;25088;43.238;23.110;2022-09-03T05:41:26;96615.53;;;17.89;100.00
39363;BME280;25088;43.238;23.110;2022-09-03T05:43:54;96616.81;;;17.97;100.00
39363;BME280;25088;43.238;23.110;2022-09-03T05:46:24;96624.38;;;18.05;100.00
39363;BME280;25088;43.238;23.110;2022-09-03T05:49:04;96618.75;;;17.96;100.00
39363;BME280;25088;43.238;23.110;2022-09-03T05:51:31;96625.53;;;17.85;100.00
39363;BME280;25088;43.238;23.110;2022-09-03T05:53:57;96616.06;;;17.91;100.00
39363;BME280;25088;43.238;23.110;2022-09-03T05:56:25;96612.44;;;18.09;100.00
39363;BME280;25088;43.238;23.110;2022-09-03T05:58:54;96611.59;;;18.28;100.00
39363;BME280;25088;43.238;23.110;2022-09-03T06:01:23;96611.50;;;18.33;100.00
39363;BME280;25088;43.238;23.110;2022-09-03T06:03:55;96616.16;;;18.51;100.00
39363;BME280;25088;43.238;23.110;2022-09-03T06:06:23;96625.03;;;18.48;100.00
39363;BME280;25088;43.238;23.110;2022-09-03T06:08:51;96623.44;;;18.61;100.00
39363;BME280;25088;43.238;23.110;2022-09-03T06:11:17;96622.66;;;18.74;100.00
39363;BME280;25088;43.238;23.110;2022-09-03T06:13:42;96623.69;;;18.92;100.00
39363;BME280;25088;43.238;23.110;2022-09-03T06:16:08;96605.84;;;18.84;100.00
39363;BME280;25088;43.238;23.110;2022-09-03T06:18:33;96617.94;;;18.89;100.00
39363;BME280;25088;43.238;23.110;2022-09-03T06:21:01;96614.59;;;19.05;100.00
39363;BME280;25088;43.238;23.110;2022-09-03T06:23:28;96613.94;;;19.08;100.00
39363;BME280;25088;43.238;23.110;2022-09-03T06:26:06;96617.03;;;19.21;99.34
39363;BME280;25088;43.238;23.110;2022-09-03T06:28:33;96613.81;;;19.41;100.00
39363;BME280;25088;43.238;23.110;2022-09-03T06:31:01;96624.91;;;19.27;98.55
39363;BME280;25088;43.238;23.110;2022-09-03T06:33:28;96610.81;;;19.51;97.96
39363;BME280;25088;43.238;23.110;2022-09-03T06:35:58;96616.53;;;19.69;95.91
39363;BME280;25088;43.238;23.110;2022-09-03T06:38:29;96626.97;;;19.85;97.34
39363;BME280;25088;43.238;23.110;2022-09-03T06:41:01;96612.22;;;19.76;95.17
39363;BME280;25088;43.238;23.110;2022-09-03T06:43:29;96619.28;;;19.82;92.84
39363;BME280;25088;43.238;23.110;2022-09-03T06:46:09;96628.41;;;19.83;94.38
39363;BME280;25088;43.238;23.110;2022-09-03T06:48:37;96631.41;;;19.73;91.92
39363;BME280;25088;43.238;23.110;2022-09-03T06:51:07;96618.47;;;19.82;93.40
39363;BME280;25088;43.238;23.110;2022-09-03T06:53:39;96636.47;;;19.93;91.62
39363;BME280;25088;43.238;23.110;2022-09-03T06:56:07;96635.16;;;19.91;91.23
39363;BME280;25088;43.238;23.110;2022-09-03T06:58:38;96643.88;;;19.84;91.32
39363;BME280;25088;43.238;23.110;2022-09-03T07:03:35;96644.13;;;19.74;91.24
39363;BME280;25088;43.238;23.110;2022-09-03T07:06:11;96630.78;;;19.76;93.06
39363;BME280;25088;43.238;23.110;2022-09-03T07:08:37;96648.22;;;19.76;92.03
39363;BME280;25088;43.238;23.110;2022-09-03T07:11:05;96647.31;;;19.53;93.28
39363;BME280;25088;43.238;23.110;2022-09-03T07:13:37;96650.94;;;19.40;95.91
39363;BME280;25088;43.238;23.110;2022-09-03T07:16:09;96657.69;;;19.48;97.51
39363;BME280;25088;43.238;23.110;2022-09-03T07:18:35;96654.09;;;19.47;97.45
39363;BME280;25088;43.238;23.110;2022-09-03T07:21:12;96660.97;;;19.63;97.00
39363;BME280;25088;43.238;23.110;2022-09-03T07:23:38;96663.72;;;19.77;97.09
39363;BME280;25088;43.238;23.110;2022-09-03T07:28:31;96671.22;;;19.77;94.85
39363;BME280;25088;43.238;23.110;2022-09-03T07:31:04;96674.00;;;19.63;94.46
39363;BME280;25088;43.238;23.110;2022-09-03T07:33:30;96682.28;;;19.77;95.18
39363;BME280;25088;43.238;23.110;2022-09-03T07:36:02;96668.16;;;19.37;93.58
39363;BME280;25088;43.238;23.110;2022-09-03T07:38:27;96685.31;;;19.25;95.85
39363;BME280;25088;43.238;23.110;2022-09-03T07:40:57;96698.78;;;18.99;97.49
39363;BME280;25088;43.238;23.110;2022-09-03T07:43:28;96691.03;;;19.01;97.27
39363;BME280;25088;43.238;23.110;2022-09-03T07:45:55;96699.63;;;19.14;95.39
39363;BME280;25088;43.238;23.110;2022-09-03T07:48:21;96692.03;;;19.19;94.05
39363;BME280;25088;43.238;23.110;2022-09-03T07:50:47;96682.09;;;19.18;93.29
39363;BME280;25088;43.238;23.110;2022-09-03T07:53:15;96698.50;;;19.56;93.30
39363;BME280;25088;43.238;23.110;2022-09-03T07:55:41;96691.44;;;19.63;93.43
39363;BME280;25088;43.238;23.110;2022-09-03T07:58:07;96704.94;;;19.79;91.41
39363;BME280;25088;43.238;23.110;2022-09-03T08:00:32;96705.25;;;19.91;89.85
39363;BME280;25088;43.238;23.110;2022-09-03T08:02:58;96704.31;;;19.96;91.52
39363;BME280;25088;43.238;23.110;2022-09-03T08:05:31;96698.25;;;19.94;90.34
39363;BME280;25088;43.238;23.110;2022-09-03T08:07:59;96694.41;;;19.81;89.47
39363;BME280;25088;43.238;23.110;2022-09-03T08:10:26;96690.00;;;19.66;89.50
39363;BME280;25088;43.238;23.110;2022-09-03T08:12:55;96701.47;;;19.73;89.98
39363;BME280;25088;43.238;23.110;2022-09-03T08:15:20;96707.19;;;20.04;87.92
39363;BME280;25088;43.238;23.110;2022-09-03T08:17:45;96700.31;;;19.88;87.13
39363;BME280;25088;43.238;23.110;2022-09-03T08:20:11;96704.75;;;19.89;91.03
39363;BME280;25088;43.238;23.110;2022-09-03T08:22:36;96692.34;;;19.73;87.57
39363;BME280;25088;43.238;23.110;2022-09-03T08:25:03;96708.72;;;19.97;87.62
39363;BME280;25088;43.238;23.110;2022-09-03T08:27:28;96706.03;;;20.05;86.94
39363;BME280;25088;43.238;23.110;2022-09-03T08:29:54;96708.03;;;20.13;86.99
39363;BME280;25088;43.238;23.110;2022-09-03T08:32:19;96708.25;;;20.17;86.82
39363;BME280;25088;43.238;23.110;2022-09-03T08:34:45;96705.13;;;20.32;86.07
39363;BME280;25088;43.238;23.110;2022-09-03T08:37:11;96702.28;;;20.46;86.00
39363;BME280;25088;43.238;23.110;2022-09-03T08:39:37;96695.09;;;20.45;85.91
39363;BME280;25088;43.238;23.110;2022-09-03T08:42:20;96704.06;;;20.42;84.67
39363;BME280;25088;43.238;23.110;2022-09-03T08:45:07;96698.94;;;20.35;84.99
39363;BME280;25088;43.238;23.110;2022-09-03T08:47:58;96698.06;;;20.26;86.46
39363;BME280;25088;43.238;23.110;2022-09-03T08:50:28;96698.63;;;20.37;86.17
39363;BME280;25088;43.238;23.110;2022-09-03T08:53:10;96703.34;;;20.50;85.50
39363;BME280;25088;43.238;23.110;2022-09-03T08:56:13;96706.72;;;20.70;84.57
39363;BME280;25088;43.238;23.110;2022-09-03T08:58:44;96694.38;;;20.53;82.61
39363;BME280;25088;43.238;23.110;2022-09-03T09:01:38;96706.72;;;20.70;81.62
39363;BME280;25088;43.238;23.110;2022-09-03T09:09:48;96711.56;;;21.17;80.67
39363;BME280;25088;43.238;23.110;2022-09-03T09:18:22;96706.91;;;21.84;76.44
39363;BME280;25088;43.238;23.110;2022-09-03T09:21:07;96709.88;;;21.96;74.84
39363;BME280;25088;43.238;23.110;2022-09-03T09:23:50;96706.44;;;21.99;75.11
39363;BME280;25088;43.238;23.110;2022-09-03T09:26:18;96709.53;;;21.89;74.27
39363;BME280;25088;43.238;23.110;2022-09-03T09:28:45;96693.03;;;21.84;74.58
39363;BME280;25088;43.238;23.110;2022-09-03T09:31:14;96715.81;;;22.21;73.66
39363;BME280;25088;43.238;23.110;2022-09-03T09:33:41;96706.00;;;22.14;71.56
39363;BME280;25088;43.238;23.110;2022-09-03T09:36:09;96714.03;;;22.51;72.98
39363;BME280;25088;43.238;23.110;2022-09-03T09:38:38;96713.34;;;22.71;71.83
39363;BME280;25088;43.238;23.110;2022-09-03T09:41:21;96711.66;;;22.87;68.84
39363;BME280;25088;43.238;23.110;2022-09-03T09:44:00;96710.09;;;22.69;70.60
39363;BME280;25088;43.238;23.110;2022-09-03T09:46:33;96716.13;;;22.62;68.78
39363;BME280;25088;43.238;23.110;2022-09-03T09:48:59;96716.41;;;22.87;66.79
39363;BME280;25088;43.238;23.110;2022-09-03T09:51:30;96702.53;;;22.95;65.81
39363;BME280;25088;43.238;23.110;2022-09-03T09:54:11;96710.03;;;23.12;66.62
39363;BME280;25088;43.238;23.110;2022-09-03T09:56:37;96705.88;;;23.57;67.68
39363;BME280;25088;43.238;23.110;2022-09-03T09:59:08;96710.09;;;23.33;66.02
39363;BME280;25088;43.238;23.110;2022-09-03T10:01:37;96711.84;;;23.85;63.48
39363;BME280;25088;43.238;23.110;2022-09-03T10:04:22;96714.41;;;23.69;63.46
39363;BME280;25088;43.238;23.110;2022-09-03T10:06:58;96713.31;;;24.33;60.44
39363;BME280;25088;43.238;23.110;2022-09-03T10:09:28;96720.69;;;23.87;62.03
39363;BME280;25088;43.238;23.110;2022-09-03T10:12:17;96725.75;;;23.64;62.46
39363;BME280;25088;43.238;23.110;2022-09-03T10:14:59;96722.56;;;23.74;62.72
39363;BME280;25088;43.238;23.110;2022-09-03T10:17:55;96724.69;;;23.30;64.61
39363;BME280;25088;43.238;23.110;2022-09-03T10:20:58;96729.88;;;22.85;66.80
39363;BME280;25088;43.238;23.110;2022-09-03T10:23:34;96728.41;;;22.61;67.54
39363;BME280;25088;43.238;23.110;2022-09-03T10:26:10;96728.25;;;22.49;69.73
39363;BME280;25088;43.238;23.110;2022-09-03T10:28:40;96725.66;;;22.18;72.01
39363;BME280;25088;43.238;23.110;2022-09-03T10:34:08;96737.75;;;21.65;73.76
39363;BME280;25088;43.238;23.110;2022-09-03T10:36:49;96732.94;;;21.48;74.81
39363;BME280;25088;43.238;23.110;2022-09-03T10:39:22;96739.34;;;21.49;75.57
39363;BME280;25088;43.238;23.110;2022-09-03T10:42:02;96738.13;;;21.32;77.01
39363;BME280;25088;43.238;23.110;2022-09-03T10:50:36;96743.28;;;21.56;83.31
39363;BME280;25088;43.238;23.110;2022-09-03T10:56:13;96736.25;;;21.50;86.17
39363;BME280;25088;43.238;23.110;2022-09-03T10:58:54;96738.16;;;21.41;83.27
39363;BME280;25088;43.238;23.110;2022-09-03T11:06:54;96740.16;;;21.49;87.64
39363;BME280;25088;43.238;23.110;2022-09-03T11:09:26;96734.13;;;21.56;83.92
39363;BME280;25088;43.238;23.110;2022-09-03T11:12:03;96734.94;;;21.56;84.39
39363;BME280;25088;43.238;23.110;2022-09-03T11:14:36;96741.28;;;21.48;84.76
39363;BME280;25088;43.238;23.110;2022-09-03T11:17:04;96740.31;;;21.53;83.35
39363;BME280;25088;43.238;23.110;2022-09-03T11:19:40;96742.47;;;21.56;84.14
39363;BME280;25088;43.238;23.110;2022-09-03T11:22:10;96733.06;;;21.83;81.72
39363;BME280;25088;43.238;23.110;2022-09-03T11:24:38;96737.34;;;22.06;79.35
39363;BME280;25088;43.238;23.110;2022-09-03T11:35:23;96742.81;;;22.55;73.34
39363;BME280;25088;43.238;23.110;2022-09-03T11:37:57;96737.91;;;22.69;72.47
39363;BME280;25088;43.238;23.110;2022-09-03T11:41:13;96735.44;;;22.85;71.05
39363;BME280;25088;43.238;23.110;2022-09-03T11:43:42;96734.13;;;23.00;71.69
39363;BME280;25088;43.238;23.110;2022-09-03T11:48:51;96732.94;;;23.18;69.74
39363;BME280;25088;43.238;23.110;2022-09-03T11:54:04;96739.00;;;23.11;70.76
39363;BME280;25088;43.238;23.110;2022-09-03T11:56:31;96712.97;;;23.07;68.89
39363;BME280;25088;43.238;23.110;2022-09-03T12:02:01;96725.19;;;23.70;67.05
39363;BME280;25088;43.238;23.110;2022-09-03T12:04:57;96723.72;;;23.73;66.56
39363;BME280;25088;43.238;23.110;2022-09-03T12:18:42;96708.22;;;23.55;68.39
39363;BME280;25088;43.238;23.110;2022-09-03T12:21:10;96708.34;;;23.20;69.51
39363;BME280;25088;43.238;23.110;2022-09-03T12:23:44;96711.59;;;23.22;69.06
39363;BME280;25088;43.238;23.110;2022-09-03T12:26:13;96707.16;;;23.30;68.39
39363;BME280;25088;43.238;23.110;2022-09-03T12:28:42;96705.19;;;23.30;66.94
39363;BME280;25088;43.238;23.110;2022-09-03T12:31:16;96709.28;;;23.33;67.97
39363;BME280;25088;43.238;23.110;2022-09-03T12:33:48;96696.84;;;23.21;68.54
39363;BME280;25088;43.238;23.110;2022-09-03T12:36:16;96712.81;;;23.12;72.82
39363;BME280;25088;43.238;23.110;2022-09-03T12:38:42;96704.78;;;23.02;72.11
39363;BME280;25088;43.238;23.110;2022-09-03T12:41:28;96711.22;;;22.94;72.68
39363;BME280;25088;43.238;23.110;2022-09-03T12:43:57;96705.63;;;22.85;74.18
39363;BME280;25088;43.238;23.110;2022-09-03T12:46:28;96696.16;;;22.78;73.60
39363;BME280;25088;43.238;23.110;2022-09-03T12:48:59;96708.09;;;22.78;76.17
39363;BME280;25088;43.238;23.110;2022-09-03T12:51:41;96708.94;;;22.70;75.93
39363;BME280;25088;43.238;23.110;2022-09-03T12:54:10;96702.88;;;22.51;75.82
39363;BME280;25088;43.238;23.110;2022-09-03T12:56:49;96705.38;;;22.43;75.62
39363;BME280;25088;43.238;23.110;2022-09-03T12:59:20;96709.25;;;22.42;77.58
39363;BME280;25088;43.238;23.110;2022-09-03T13:01:56;96709.94;;;22.48;77.76
39363;BME280;25088;43.238;23.110;2022-09-03T13:04:29;96704.22;;;22.53;78.72
39363;BME280;25088;43.238;23.110;2022-09-03T13:10:06;96704.00;;;22.67;80.20
39363;BME280;25088;43.238;23.110;2022-09-03T13:12:45;96704.69;;;22.73;79.06
39363;BME280;25088;43.238;23.110;2022-09-03T13:15:22;96699.41;;;22.80;75.11
39363;BME280;25088;43.238;23.110;2022-09-03T13:20:32;96697.63;;;22.84;78.04
39363;BME280;25088;43.238;23.110;2022-09-03T13:33:50;96687.63;;;22.91;78.67
39363;BME280;25088;43.238;23.110;2022-09-03T13:36:20;96686.34;;;22.89;78.59
39363;BME280;25088;43.238;23.110;2022-09-03T13:38:52;96686.94;;;22.86;80.19
39363;BME280;25088;43.238;23.110;2022-09-03T13:41:42;96687.47;;;22.79;82.02
39363;BME280;25088;43.238;23.110;2022-09-03T13:47:00;96702.06;;;22.50;80.19
39363;BME280;25088;43.238;23.110;2022-09-03T13:52:37;96694.06;;;22.49;83.95
39363;BME280;25088;43.238;23.110;2022-09-03T13:58:25;96704.53;;;22.26;87.13
39363;BME280;25088;43.238;23.110;2022-09-03T14:01:11;96702.38;;;22.05;89.11
39363;BME280;25088;43.238;23.110;2022-09-03T14:03:54;96703.50;;;22.04;88.87
39363;BME280;25088;43.238;23.110;2022-09-03T14:06:45;96714.94;;;21.85;88.97
39363;BME280;25088;43.238;23.110;2022-09-03T14:12:24;96701.81;;;21.77;91.80
39363;BME280;25088;43.238;23.110;2022-09-03T14:22:55;96709.22;;;21.90;93.18
39363;BME280;25088;43.238;23.110;2022-09-03T14:25:27;96714.44;;;21.92;92.42
39363;BME280;25088;43.238;23.110;2022-09-03T14:27:54;96713.00;;;21.94;93.08
39363;BME280;25088;43.238;23.110;2022-09-03T14:35:59;96702.97;;;21.76;92.40
39363;BME280;25088;43.238;23.110;2022-09-03T14:55:01;96704.28;;;21.79;87.55
39363;BME280;25088;43.238;23.110;2022-09-03T14:57:41;96700.34;;;21.71;86.62
39363;BME280;25088;43.238;23.110;2022-09-03T15:00:16;96703.44;;;21.70;87.86
39363;BME280;25088;43.238;23.110;2022-09-03T15:08:31;96713.56;;;21.65;86.51
39363;BME280;25088;43.238;23.110;2022-09-03T15:11:03;96709.66;;;21.66;87.95
39363;BME280;25088;43.238;23.110;2022-09-03T15:13:54;96707.19;;;21.65;88.93
39363;BME280;25088;43.238;23.110;2022-09-03T15:22:45;96698.94;;;21.34;91.70
39363;BME280;25088;43.238;23.110;2022-09-03T15:25:37;96716.56;;;21.38;92.59
39363;BME280;25088;43.238;23.110;2022-09-03T15:31:08;96710.44;;;21.27;93.41
39363;BME280;25088;43.238;23.110;2022-09-03T15:33:46;96713.88;;;21.24;92.59
39363;BME280;25088;43.238;23.110;2022-09-03T15:36:23;96671.75;;;20.91;92.54
39363;BME280;25088;43.238;23.110;2022-09-03T15:38:56;96715.63;;;21.11;92.17
39363;BME280;25088;43.238;23.110;2022-09-03T15:41:47;96711.41;;;21.14;90.52
39363;BME280;25088;43.238;23.110;2022-09-03T15:44:16;96698.56;;;20.96;91.13
39363;BME280;25088;43.238;23.110;2022-09-03T15:46:58;96714.59;;;20.99;93.57
39363;BME280;25088;43.238;23.110;2022-09-03T15:58:18;96716.91;;;21.05;90.14
39363;BME280;25088;43.238;23.110;2022-09-03T16:04:09;96714.00;;;20.88;91.22
39363;BME280;25088;43.238;23.110;2022-09-03T16:07:00;96716.28;;;20.86;90.83
39363;BME280;25088;43.238;23.110;2022-09-03T16:10:19;96711.50;;;20.78;91.20
39363;BME280;25088;43.238;23.110;2022-09-03T16:15:19;96719.81;;;20.78;92.64
39363;BME280;25088;43.238;23.110;2022-09-03T16:20:48;96723.81;;;20.63;93.62
39363;BME280;25088;43.238;23.110;2022-09-03T16:23:30;96719.28;;;20.67;94.53
39363;BME280;25088;43.238;23.110;2022-09-03T16:26:00;96717.75;;;20.61;95.68
39363;BME280;25088;43.238;23.110;2022-09-03T16:28:46;96718.09;;;20.59;94.51